createdAt,value
2022-12-15T00:02:00.894Z,37.70
2022-12-15T00:04:47.854Z,36.23
2022-12-15T00:07:34.939Z,34.73
2022-12-15T00:10:22.006Z,36.07
2022-12-15T00:13:09.687Z,38.33
2022-12-15T00:15:56.119Z,36.17
2022-12-15T00:18:43.051Z,36.77
2022-12-15T00:21:30.013Z,36.83
2022-12-15T00:24:16.629Z,35.67
2022-12-15T00:27:03.072Z,35.53
2022-12-15T00:29:52.119Z,35.03
2022-12-15T00:32:38.618Z,33.83
2022-12-15T00:35:26.835Z,33.70
2022-12-15T00:38:13.257Z,35.13
2022-12-15T00:40:42.362Z,36.03
2022-12-15T00:43:12.323Z,35.90
2022-12-15T00:46:01.087Z,33.80
2022-12-15T00:48:30.208Z,35.83
2022-12-15T00:50:59.925Z,34.93
2022-12-15T00:53:46.854Z,36.47
2022-12-15T00:56:34.275Z,36.70
2022-12-15T00:59:21.151Z,36.10
2022-12-15T01:02:09.103Z,36.07
2022-12-15T01:04:55.501Z,35.27
2022-12-15T01:07:41.851Z,35.00
2022-12-15T01:10:28.214Z,34.20
2022-12-15T01:13:15.155Z,35.70
2022-12-15T01:16:01.600Z,35.87
2022-12-15T01:18:52.153Z,34.53
2022-12-15T01:21:24.841Z,33.70
2022-12-15T01:23:54.887Z,34.23
2022-12-15T01:26:24.241Z,34.37
2022-12-15T01:28:53.387Z,34.77
2022-12-15T01:31:22.507Z,36.47
2022-12-15T01:33:56.007Z,34.40
2022-12-15T01:36:24.931Z,37.43
2022-12-15T01:38:54.699Z,37.10
2022-12-15T01:41:23.178Z,36.07
2022-12-15T01:43:52.225Z,34.83
2022-12-15T01:46:24.111Z,34.37
2022-12-15T01:49:00.673Z,33.90
2022-12-15T01:51:34.746Z,35.13
2022-12-15T01:54:08.051Z,35.03
2022-12-15T01:56:40.138Z,35.90
2022-12-15T01:59:11.996Z,33.90
2022-12-15T02:01:41.014Z,35.00
2022-12-15T02:04:14.601Z,36.63
2022-12-15T02:06:43.408Z,35.07
2022-12-15T02:09:12.861Z,35.83
2022-12-15T02:11:57.229Z,35.93
2022-12-15T02:14:37.471Z,36.33
2022-12-15T02:17:15.446Z,34.57
2022-12-15T02:20:20.832Z,35.77
2022-12-15T02:23:12.884Z,33.53
2022-12-15T02:25:55.783Z,35.40
2022-12-15T02:28:36.707Z,37.07
2022-12-15T02:31:26.967Z,35.40
2022-12-15T02:34:03.567Z,35.43
2022-12-15T02:36:37.717Z,36.07
2022-12-15T02:39:06.943Z,36.97
2022-12-15T02:41:39.002Z,36.53
2022-12-15T02:44:13.315Z,34.63
2022-12-15T02:46:55.659Z,36.90
2022-12-15T02:49:36.522Z,36.50
2022-12-15T02:52:21.373Z,36.50
2022-12-15T02:55:10.710Z,35.80
2022-12-15T02:57:49.226Z,37.57
2022-12-15T03:00:19.364Z,35.53
2022-12-15T03:02:52.988Z,37.40
2022-12-15T03:05:23.800Z,37.27
2022-12-15T03:07:54.189Z,37.10
2022-12-15T03:10:25.789Z,37.70
2022-12-15T03:12:55.468Z,37.87
2022-12-15T03:15:24.421Z,36.33
2022-12-15T03:17:55.018Z,39.37
2022-12-15T03:20:24.307Z,38.50
2022-12-15T03:22:53.927Z,35.87
2022-12-15T03:25:22.850Z,37.33
2022-12-15T03:27:51.825Z,37.27
2022-12-15T03:30:21.421Z,36.70
2022-12-15T03:32:50.421Z,38.77
2022-12-15T03:35:20.495Z,37.77
2022-12-15T03:37:49.775Z,37.93
2022-12-15T03:40:18.694Z,38.03
2022-12-15T03:42:51.221Z,36.97
2022-12-15T03:45:22.089Z,37.23
2022-12-15T03:47:51.846Z,37.83
2022-12-15T03:50:24.130Z,36.77
2022-12-15T03:52:54.633Z,36.77
2022-12-15T03:55:24.628Z,37.47
2022-12-15T03:57:53.743Z,37.93
2022-12-15T04:00:24.629Z,38.10
2022-12-15T04:02:54.564Z,38.27
2022-12-15T04:05:27.846Z,38.00
2022-12-15T04:07:58.192Z,37.23
2022-12-15T04:10:34.041Z,39.30
2022-12-15T04:13:05.602Z,37.13
2022-12-15T04:15:35.456Z,36.30
2022-12-15T04:18:06.863Z,36.53
2022-12-15T04:20:37.822Z,35.20
2022-12-15T04:23:08.598Z,34.63
2022-12-15T04:25:56.382Z,36.23
2022-12-15T04:28:42.879Z,33.63
2022-12-15T04:31:32.537Z,35.40
2022-12-15T04:34:21.281Z,35.50
2022-12-15T04:37:12.140Z,32.93
2022-12-15T04:40:00.650Z,34.73
2022-12-15T04:42:48.633Z,34.33
2022-12-15T04:45:37.951Z,35.27
2022-12-15T04:48:25.169Z,34.53
2022-12-15T04:51:11.928Z,33.70
2022-12-15T04:54:02.103Z,34.73
2022-12-15T04:56:49.862Z,32.60
2022-12-15T04:59:36.958Z,33.37
2022-12-15T05:02:23.689Z,34.57
2022-12-15T05:05:10.088Z,33.27
2022-12-15T05:07:56.397Z,33.67
2022-12-15T05:10:49.846Z,34.47
2022-12-15T05:13:39.442Z,32.07
2022-12-15T05:16:26.308Z,33.43
2022-12-15T05:19:12.749Z,33.30
2022-12-15T05:21:59.102Z,32.57
2022-12-15T05:24:45.384Z,32.53
2022-12-15T05:27:33.004Z,35.30
2022-12-15T05:30:19.335Z,31.73
2022-12-15T05:32:49.832Z,32.60
2022-12-15T05:35:19.109Z,33.57
2022-12-15T05:37:48.273Z,32.97
2022-12-15T05:40:17.439Z,33.77
2022-12-15T05:42:50.205Z,32.03
2022-12-15T05:45:19.393Z,32.53
2022-12-15T05:47:52.112Z,32.80
2022-12-15T05:50:22.785Z,33.50
2022-12-15T05:52:51.817Z,32.37
2022-12-15T05:55:20.827Z,33.40
2022-12-15T05:57:54.083Z,32.77
2022-12-15T06:00:23.453Z,31.43
2022-12-15T06:02:52.527Z,32.57
2022-12-15T06:05:21.646Z,33.17
2022-12-15T06:07:51.648Z,33.63
2022-12-15T06:10:20.711Z,34.60
2022-12-15T06:12:49.896Z,33.73
2022-12-15T06:15:20.265Z,32.20
2022-12-15T06:17:49.772Z,35.00
2022-12-15T06:20:23.028Z,34.43
2022-12-15T06:22:52.629Z,34.77
2022-12-15T06:25:21.872Z,33.80
2022-12-15T06:27:51.514Z,34.07
2022-12-15T06:30:21.951Z,34.43
2022-12-15T06:32:51.230Z,32.43
2022-12-15T06:35:21.389Z,35.83
2022-12-15T06:37:50.558Z,34.30
2022-12-15T06:40:19.744Z,37.63
2022-12-15T06:42:49.131Z,35.53
2022-12-15T06:45:18.797Z,36.43
2022-12-15T06:47:50.534Z,42.03
2022-12-15T06:50:19.818Z,39.20
2022-12-15T06:52:49.050Z,38.10
2022-12-15T06:55:18.550Z,43.23
2022-12-15T06:57:48.890Z,42.27
2022-12-15T07:00:18.835Z,37.67
2022-12-15T07:02:49.843Z,36.90
2022-12-15T07:05:21.591Z,34.97
2022-12-15T07:07:50.990Z,33.60
2022-12-15T07:10:19.944Z,34.30
2022-12-15T07:12:49.208Z,40.40
2022-12-15T07:15:18.639Z,39.13
2022-12-15T07:17:47.842Z,36.60
2022-12-15T07:20:17.582Z,35.27
2022-12-15T07:22:52.739Z,35.00
2022-12-15T07:25:22.147Z,34.77
2022-12-15T07:27:51.307Z,33.87
2022-12-15T07:30:20.306Z,36.73
2022-12-15T07:32:50.127Z,34.17
2022-12-15T07:35:19.751Z,33.33
2022-12-15T07:37:48.854Z,33.97
2022-12-15T07:40:19.840Z,34.50
2022-12-15T07:42:49.143Z,32.33
2022-12-15T07:45:18.202Z,34.10
2022-12-15T07:47:50.971Z,34.17
2022-12-15T07:50:20.405Z,33.93
2022-12-15T07:52:51.439Z,34.47
2022-12-15T07:55:43.414Z,33.23
2022-12-15T07:58:10.973Z,35.30
2022-12-15T08:00:43.869Z,32.50
2022-12-15T08:03:17.701Z,33.00
2022-12-15T08:05:47.166Z,33.53
2022-12-15T08:08:16.213Z,33.67
2022-12-15T08:10:46.996Z,32.27
2022-12-15T08:13:38.078Z,33.43
2022-12-15T08:16:06.453Z,31.87
2022-12-15T08:18:35.597Z,33.07
2022-12-15T08:21:06.647Z,34.83
2022-12-15T08:23:36.735Z,32.63
2022-12-15T08:26:08.733Z,32.93
2022-12-15T08:28:39.762Z,34.23
2022-12-15T08:31:15.574Z,34.00
2022-12-15T08:33:46.133Z,33.67
2022-12-15T08:36:17.593Z,34.00
2022-12-15T08:38:48.052Z,34.30
2022-12-15T08:41:20.877Z,33.90
2022-12-15T08:43:51.202Z,33.73
2022-12-15T08:46:22.687Z,35.73
2022-12-15T08:48:52.936Z,35.23
2022-12-15T08:51:24.245Z,33.97
2022-12-15T08:53:53.559Z,35.93
2022-12-15T08:56:25.441Z,35.77
2022-12-15T08:58:57.917Z,36.37
2022-12-15T09:01:29.619Z,37.27
2022-12-15T09:03:59.600Z,37.13
2022-12-15T09:06:30.608Z,35.43
2022-12-15T09:09:01.606Z,36.53
2022-12-15T09:11:32.660Z,35.00
2022-12-15T09:14:01.903Z,34.93
2022-12-15T09:16:31.844Z,36.10
2022-12-15T09:19:01.827Z,36.30
2022-12-15T09:21:32.182Z,34.47
2022-12-15T09:24:02.975Z,35.93
2022-12-15T09:26:35.719Z,34.90
2022-12-15T09:29:04.923Z,35.60
2022-12-15T09:31:38.304Z,35.63
2022-12-15T09:34:07.515Z,35.80
2022-12-15T09:36:37.002Z,35.43
2022-12-15T09:39:06.146Z,36.93
2022-12-15T09:41:37.507Z,33.67
2022-12-15T09:44:11.351Z,36.20
2022-12-15T09:46:54.504Z,35.53
2022-12-15T09:49:37.768Z,34.50
2022-12-15T09:52:11.691Z,36.23
2022-12-15T09:54:42.571Z,35.33
2022-12-15T09:57:22.971Z,36.87
2022-12-15T10:00:07.331Z,36.80
2022-12-15T10:03:16.073Z,36.53
2022-12-15T10:08:51.357Z,36.83
2022-12-15T10:11:27.220Z,37.10
2022-12-15T10:14:06.318Z,38.20
2022-12-15T10:16:52.716Z,36.57
2022-12-15T10:19:30.495Z,37.43
2022-12-15T10:21:59.903Z,37.97
2022-12-15T10:27:49.338Z,38.87
2022-12-15T10:30:20.354Z,39.53
2022-12-15T10:32:52.505Z,39.13
2022-12-15T10:35:24.375Z,39.87
2022-12-15T10:37:54.530Z,38.50
2022-12-15T10:40:50.050Z,39.03
2022-12-15T10:43:28.349Z,37.90
2022-12-15T10:46:13.491Z,38.33
2022-12-15T10:48:44.133Z,37.67
2022-12-15T10:51:26.068Z,38.10
2022-12-15T10:54:04.895Z,37.87
2022-12-15T10:56:37.312Z,37.67
2022-12-15T10:59:24.821Z,37.37
2022-12-15T11:01:55.807Z,37.07
2022-12-15T11:04:29.438Z,36.37
2022-12-15T11:06:59.955Z,37.03
2022-12-15T11:09:34.382Z,35.53
2022-12-15T11:12:35.073Z,36.43
2022-12-15T11:15:24.477Z,36.27
2022-12-15T11:17:59.326Z,34.43
2022-12-15T11:20:33.682Z,33.13
2022-12-15T11:23:08.131Z,33.77
2022-12-15T11:25:43.673Z,31.70
2022-12-15T11:28:17.967Z,33.77
2022-12-15T11:30:53.318Z,32.17
2022-12-15T11:33:25.145Z,35.67
2022-12-15T11:36:10.279Z,32.47
2022-12-15T11:38:44.817Z,31.77
2022-12-15T11:41:29.274Z,32.80
2022-12-15T11:44:16.762Z,34.23
2022-12-15T11:46:53.442Z,35.33
2022-12-15T11:49:58.063Z,34.80
2022-12-15T11:52:47.722Z,35.07
2022-12-15T11:55:30.262Z,34.70
2022-12-15T11:58:29.105Z,33.13
2022-12-15T12:01:10.118Z,34.83
2022-12-15T12:03:49.529Z,33.77
2022-12-15T12:06:26.302Z,33.73
2022-12-15T12:09:12.312Z,34.07
2022-12-15T12:11:48.827Z,32.97
2022-12-15T12:14:31.755Z,33.97
2022-12-15T12:17:07.316Z,32.90
2022-12-15T12:19:42.479Z,34.03
2022-12-15T12:22:23.238Z,34.47
2022-12-15T12:24:57.703Z,33.30
2022-12-15T12:27:34.868Z,33.13
2022-12-15T12:30:07.151Z,33.90
2022-12-15T12:32:48.282Z,32.97
2022-12-15T12:35:30.690Z,34.87
2022-12-15T12:38:05.432Z,34.50
2022-12-15T12:40:47.722Z,33.80
2022-12-15T12:43:28.237Z,33.83
2022-12-15T12:46:03.123Z,34.00
2022-12-15T12:48:37.921Z,34.70
2022-12-15T12:51:15.374Z,33.43
2022-12-15T12:53:46.191Z,35.23
2022-12-15T12:56:37.701Z,35.27
2022-12-15T12:59:36.397Z,35.43
2022-12-15T13:02:42.088Z,35.60
2022-12-15T13:05:33.700Z,35.47
2022-12-15T13:08:50.891Z,34.87
2022-12-15T13:11:55.569Z,36.27
2022-12-15T13:14:31.906Z,35.73
2022-12-15T13:17:25.928Z,36.20
2022-12-15T13:20:27.576Z,36.63
2022-12-15T13:23:13.031Z,36.03
2022-12-15T13:28:50.478Z,35.80
2022-12-15T13:31:42.908Z,35.47
2022-12-15T13:34:25.355Z,40.43
2022-12-15T13:37:00.025Z,38.53
2022-12-15T13:39:52.130Z,38.20
2022-12-15T13:45:52.614Z,44.80
2022-12-15T13:48:39.405Z,44.33
2022-12-15T13:51:25.285Z,40.83
2022-12-15T13:54:00.086Z,37.73
2022-12-15T13:56:46.032Z,36.27
2022-12-15T13:59:23.742Z,38.47
2022-12-15T14:01:55.351Z,37.70
2022-12-15T14:04:24.583Z,37.47
2022-12-15T14:06:55.923Z,36.77
2022-12-15T14:09:29.925Z,35.70
2022-12-15T14:11:59.663Z,37.40
2022-12-15T14:14:31.400Z,36.80
2022-12-15T14:17:03.952Z,36.87
2022-12-15T14:19:42.031Z,35.37
2022-12-15T14:22:28.983Z,36.70
2022-12-15T14:25:21.383Z,35.47
2022-12-15T14:27:51.255Z,35.03
2022-12-15T14:30:23.741Z,35.87
2022-12-15T14:32:58.397Z,35.97
2022-12-15T14:35:32.223Z,36.63
2022-12-15T14:38:04.206Z,37.30
2022-12-15T14:40:37.070Z,36.10
2022-12-15T14:43:07.373Z,36.90
2022-12-15T14:45:36.598Z,36.93
2022-12-15T14:48:40.009Z,38.27
2022-12-15T14:51:01.236Z,40.37
2022-12-15T14:53:34.485Z,38.13
2022-12-15T14:56:30.076Z,40.73
2022-12-15T14:59:04.039Z,37.63
2022-12-15T15:01:37.240Z,38.40
2022-12-15T15:03:11.430Z,43.33
2022-12-15T15:03:13.112Z,35.33
2022-12-15T15:04:22.779Z,39.43
2022-12-15T15:06:56.379Z,36.57
2022-12-15T15:09:27.045Z,38.50
2022-12-15T15:11:58.169Z,38.67
2022-12-15T15:14:31.827Z,38.27
2022-12-15T15:17:05.377Z,38.27
2022-12-15T15:19:39.780Z,37.83
2022-12-15T15:22:29.006Z,42.10
2022-12-15T15:24:58.178Z,38.97
2022-12-15T15:27:33.860Z,37.80
2022-12-15T15:30:17.424Z,37.40
2022-12-15T15:32:55.621Z,39.93
2022-12-15T15:35:31.246Z,39.70
2022-12-15T15:38:05.780Z,40.07
2022-12-15T15:40:35.047Z,41.20
2022-12-15T15:43:11.717Z,40.37
2022-12-15T15:45:42.410Z,40.93
2022-12-15T15:48:18.991Z,40.90
2022-12-15T15:50:49.824Z,40.60
2022-12-15T15:53:21.890Z,39.40
2022-12-15T15:55:53.699Z,38.13
2022-12-15T15:58:22.880Z,38.97
2022-12-15T16:00:53.410Z,38.13
2022-12-15T16:03:22.643Z,36.30
2022-12-15T16:05:53.653Z,37.47
2022-12-15T16:08:31.122Z,35.77
2022-12-15T16:11:00.903Z,36.27
2022-12-15T16:13:30.160Z,37.60
2022-12-15T16:15:59.433Z,36.97
2022-12-15T16:18:28.539Z,38.37
2022-12-15T16:20:59.307Z,40.30
2022-12-15T16:23:32.834Z,42.83
2022-12-15T16:26:02.015Z,39.93
2022-12-15T16:28:32.621Z,39.13
2022-12-15T16:31:03.375Z,37.93
2022-12-15T16:33:33.177Z,37.97
2022-12-15T16:36:11.736Z,36.00
2022-12-15T16:38:41.854Z,38.27
2022-12-15T16:41:16.228Z,39.10
2022-12-15T16:43:48.193Z,38.90
2022-12-15T16:46:17.808Z,39.60
2022-12-15T16:48:46.917Z,39.43
2022-12-15T16:51:31.187Z,38.07
2022-12-15T16:54:03.760Z,37.40
2022-12-15T16:56:32.899Z,42.13
2022-12-15T16:59:31.457Z,47.27
2022-12-15T17:01:52.033Z,38.73
2022-12-15T17:04:21.516Z,37.87
2022-12-15T17:06:53.811Z,39.33
2022-12-15T17:09:24.736Z,37.83
2022-12-15T17:11:54.354Z,36.73
2022-12-15T17:14:23.577Z,34.97
2022-12-15T17:16:52.878Z,36.10
2022-12-15T17:19:21.827Z,35.90
2022-12-15T17:21:54.388Z,37.33
2022-12-15T17:24:23.648Z,35.83
2022-12-15T17:26:52.624Z,35.43
2022-12-15T17:29:23.636Z,35.27
2022-12-15T17:31:53.298Z,35.20
2022-12-15T17:34:30.065Z,36.20
2022-12-15T17:37:03.306Z,36.03
2022-12-15T17:39:35.190Z,34.03
2022-12-15T17:42:08.200Z,36.83
2022-12-15T17:44:38.638Z,37.23
2022-12-15T17:47:09.659Z,37.60
2022-12-15T17:49:39.317Z,36.90
2022-12-15T17:52:28.324Z,35.73
2022-12-15T17:54:58.447Z,36.03
2022-12-15T17:57:31.419Z,34.83
2022-12-15T18:00:02.001Z,36.33
2022-12-15T18:02:34.892Z,35.37
2022-12-15T18:05:07.259Z,36.00
2022-12-15T18:07:37.912Z,36.00
2022-12-15T18:10:08.227Z,35.10
2022-12-15T18:12:37.251Z,36.27
2022-12-15T18:15:19.190Z,35.93
2022-12-15T18:17:48.567Z,33.67
2022-12-15T18:20:18.881Z,33.97
2022-12-15T18:22:50.553Z,34.27
2022-12-15T18:25:22.208Z,34.33
2022-12-15T18:27:51.508Z,34.70
2022-12-15T18:30:22.963Z,33.70
2022-12-15T18:32:57.277Z,35.50
2022-12-15T18:35:33.638Z,34.17
2022-12-15T18:38:11.654Z,34.97
2022-12-15T18:40:40.909Z,35.13
2022-12-15T18:43:15.659Z,35.47
2022-12-15T18:45:45.797Z,34.30
2022-12-15T18:48:20.275Z,36.00
2022-12-15T18:50:52.689Z,35.20
2022-12-15T18:53:32.469Z,34.67
2022-12-15T18:56:02.899Z,33.93
2022-12-15T18:58:33.758Z,34.30
2022-12-15T19:01:04.614Z,34.90
2022-12-15T19:03:35.711Z,34.50
2022-12-15T19:06:10.903Z,34.47
2022-12-15T19:08:42.158Z,35.30
2022-12-15T19:11:17.948Z,34.87
2022-12-15T19:13:47.118Z,34.87
2022-12-15T19:16:19.784Z,35.53
2022-12-15T19:19:06.260Z,35.67
2022-12-15T19:21:54.789Z,35.57
2022-12-15T19:24:40.930Z,35.53
2022-12-15T19:27:11.977Z,35.83
2022-12-15T19:29:41.955Z,36.00
2022-12-15T19:32:11.251Z,36.10
2022-12-15T19:34:40.885Z,36.33
2022-12-15T19:37:17.449Z,34.33
2022-12-15T19:39:48.240Z,34.50
2022-12-15T19:42:20.269Z,35.53
2022-12-15T19:44:49.355Z,36.23
2022-12-15T19:47:18.529Z,35.17
2022-12-15T19:49:47.672Z,35.97
2022-12-15T19:52:18.293Z,36.13
2022-12-15T19:54:51.509Z,36.03
2022-12-15T19:57:21.667Z,35.50
2022-12-15T19:59:50.746Z,35.80
2022-12-15T20:02:22.115Z,35.40
2022-12-15T20:04:51.357Z,39.10
2022-12-15T20:07:27.359Z,37.97
2022-12-15T20:09:58.175Z,35.83
2022-12-15T20:12:27.487Z,37.20
2022-12-15T20:14:56.537Z,35.00
2022-12-15T20:17:25.499Z,34.67
2022-12-15T20:19:54.434Z,34.93
2022-12-15T20:22:23.667Z,34.93
2022-12-15T20:24:52.790Z,34.27
2022-12-15T20:27:23.292Z,36.03
2022-12-15T20:29:52.729Z,35.60
2022-12-15T20:32:22.450Z,35.63
2022-12-15T20:34:51.522Z,35.57
2022-12-15T20:37:30.497Z,34.20
2022-12-15T20:39:59.416Z,36.90
2022-12-15T20:42:29.797Z,35.73
2022-12-15T20:45:00.328Z,34.90
2022-12-15T20:47:30.116Z,35.20
2022-12-15T20:49:59.116Z,33.40
2022-12-15T20:52:28.487Z,33.70
2022-12-15T20:54:57.391Z,34.87
2022-12-15T20:57:26.956Z,31.63
2022-12-15T20:59:58.475Z,34.83
2022-12-15T21:02:29.946Z,34.70
2022-12-15T21:04:59.048Z,37.07
2022-12-15T21:07:28.144Z,34.33
2022-12-15T21:09:57.396Z,35.73
2022-12-15T21:12:28.901Z,34.57
2022-12-15T21:14:59.382Z,35.47
2022-12-15T21:17:28.616Z,36.53
2022-12-15T21:19:57.612Z,35.40
2022-12-15T21:22:28.380Z,37.10
2022-12-15T21:25:00.529Z,34.13
2022-12-15T21:27:29.608Z,32.97
2022-12-15T21:30:00.079Z,38.60
2022-12-15T21:32:29.084Z,40.73
2022-12-15T21:34:57.924Z,40.77
2022-12-15T21:37:30.770Z,34.40
2022-12-15T21:40:00.544Z,34.30
2022-12-15T21:42:37.278Z,35.77
2022-12-15T21:45:14.667Z,35.50
2022-12-15T21:48:01.309Z,35.03
2022-12-15T21:50:30.432Z,36.07
2022-12-15T21:53:00.081Z,35.73
2022-12-15T21:55:30.715Z,37.27
2022-12-15T21:57:59.765Z,35.23
2022-12-15T22:00:30.071Z,34.87
2022-12-15T22:02:59.188Z,35.60
2022-12-15T22:05:30.582Z,36.20
2022-12-15T22:08:10.213Z,35.43
2022-12-15T22:10:39.311Z,37.00
2022-12-15T22:13:13.712Z,38.13
2022-12-15T22:15:45.010Z,35.73
2022-12-15T22:18:19.605Z,32.33
2022-12-15T22:20:49.862Z,33.53
2022-12-15T22:23:20.201Z,34.23
2022-12-15T22:25:52.709Z,31.70
2022-12-15T22:28:25.482Z,32.40
2022-12-15T22:30:57.662Z,31.40
2022-12-15T22:33:29.143Z,31.43
2022-12-15T22:35:58.090Z,31.57
2022-12-15T22:38:27.031Z,32.83
2022-12-15T22:40:59.721Z,31.20
2022-12-15T22:43:36.469Z,32.40
2022-12-15T22:46:10.325Z,30.73
2022-12-15T22:48:42.517Z,30.20
2022-12-15T22:51:14.918Z,30.43
2022-12-15T22:53:44.715Z,30.70
2022-12-15T22:56:23.756Z,30.50
2022-12-15T22:58:56.951Z,29.80
2022-12-15T23:01:28.368Z,30.43
2022-12-15T23:03:57.587Z,30.93
2022-12-15T23:06:29.219Z,28.30
2022-12-15T23:08:59.281Z,29.50
2022-12-15T23:11:39.743Z,29.40
2022-12-15T23:14:10.696Z,29.07
2022-12-15T23:16:41.222Z,28.70
2022-12-15T23:19:23.425Z,30.10
2022-12-15T23:21:52.524Z,29.37
2022-12-15T23:24:21.924Z,29.67
2022-12-15T23:26:50.916Z,29.87
2022-12-15T23:29:20.808Z,30.37
2022-12-15T23:31:51.410Z,30.27
2022-12-15T23:34:21.056Z,28.90
2022-12-15T23:36:50.013Z,30.37
2022-12-15T23:39:18.895Z,29.40
2022-12-15T23:41:47.792Z,29.00
2022-12-15T23:44:16.865Z,29.43
2022-12-15T23:46:46.866Z,29.30
2022-12-15T23:49:17.414Z,29.80
2022-12-15T23:51:46.331Z,27.93
2022-12-15T23:54:15.601Z,29.03
2022-12-15T23:56:44.523Z,30.53
2022-12-15T23:59:14.302Z,26.77
